sensor_id;sensor_type;location;lat;lon;timestamp;pressure;altitude;pressure_sealevel;temperature;humidity
58534;BME280;44109;52.398;7.024;2023-12-14T00:01:40;100657.56;;;6.42;100.00
58534;BME280;44109;52.398;7.024;2023-12-14T00:04:08;100657.34;;;6.22;100.00
58534;BME280;44109;52.398;7.024;2023-12-14T00:06:35;100671.91;;;6.35;100.00
58534;BME280;44109;52.398;7.024;2023-12-14T00:09:03;100657.88;;;6.03;100.00
58534;BME280;44109;52.398;7.024;2023-12-14T00:11:32;100670.91;;;6.27;100.00
58534;BME280;44109;52.398;7.024;2023-12-14T00:14:04;100675.25;;;5.71;100.00
58534;BME280;44109;52.398;7.024;2023-12-14T00:16:32;100686.50;;;5.78;100.00
58534;BME280;44109;52.398;7.024;2023-12-14T00:18:59;100686.03;;;6.21;100.00
58534;BME280;44109;52.398;7.024;2023-12-14T00:21:27;100696.13;;;6.05;100.00
58534;BME280;44109;52.398;7.024;2023-12-14T00:23:55;100703.44;;;5.68;100.00
58534;BME280;44109;52.398;7.024;2023-12-14T00:26:22;100705.41;;;6.00;100.00
58534;BME280;44109;52.398;7.024;2023-12-14T00:28:51;100717.31;;;5.92;100.00
58534;BME280;44109;52.398;7.024;2023-12-14T00:31:19;100721.50;;;5.90;100.00
58534;BME280;44109;52.398;7.024;2023-12-14T00:33:46;100724.78;;;5.92;100.00
58534;BME280;44109;52.398;7.024;2023-12-14T00:36:17;100730.31;;;5.50;100.00
58534;BME280;44109;52.398;7.024;2023-12-14T00:38:45;100729.97;;;5.84;100.00
58534;BME280;44109;52.398;7.024;2023-12-14T00:41:13;100736.59;;;5.92;100.00
58534;BME280;44109;52.398;7.024;2023-12-14T00:43:41;100738.75;;;5.66;100.00
58534;BME280;44109;52.398;7.024;2023-12-14T00:46:09;100735.69;;;5.79;100.00
58534;BME280;44109;52.398;7.024;2023-12-14T00:48:37;100748.31;;;5.80;100.00
58534;BME280;44109;52.398;7.024;2023-12-14T00:51:05;100736.84;;;5.78;100.00
58534;BME280;44109;52.398;7.024;2023-12-14T00:53:32;100752.38;;;6.28;100.00
58534;BME280;44109;52.398;7.024;2023-12-14T00:56:00;100757.16;;;6.07;100.00
58534;BME280;44109;52.398;7.024;2023-12-14T00:58:27;100741.59;;;6.48;100.00
58534;BME280;44109;52.398;7.024;2023-12-14T01:00:55;100749.63;;;6.53;100.00
58534;BME280;44109;52.398;7.024;2023-12-14T01:03:24;100758.84;;;6.69;100.00
58534;BME280;44109;52.398;7.024;2023-12-14T01:05:52;100743.00;;;6.42;100.00
58534;BME280;44109;52.398;7.024;2023-12-14T01:08:19;100768.00;;;6.37;100.00
58534;BME280;44109;52.398;7.024;2023-12-14T01:10:47;100753.78;;;5.68;100.00
58534;BME280;44109;52.398;7.024;2023-12-14T01:13:14;100777.50;;;6.15;100.00
58534;BME280;44109;52.398;7.024;2023-12-14T01:15:42;100774.59;;;5.57;100.00
58534;BME280;44109;52.398;7.024;2023-12-14T01:18:09;100784.19;;;6.38;100.00
58534;BME280;44109;52.398;7.024;2023-12-14T01:20:38;100788.53;;;5.94;100.00
58534;BME280;44109;52.398;7.024;2023-12-14T01:23:06;100806.66;;;5.95;100.00
58534;BME280;44109;52.398;7.024;2023-12-14T01:25:35;100783.44;;;5.83;100.00
58534;BME280;44109;52.398;7.024;2023-12-14T01:28:03;100811.91;;;5.88;100.00
58534;BME280;44109;52.398;7.024;2023-12-14T01:30:31;100815.44;;;5.88;100.00
58534;BME280;44109;52.398;7.024;2023-12-14T01:32:58;100815.09;;;5.90;100.00
58534;BME280;44109;52.398;7.024;2023-12-14T01:35:26;100824.50;;;6.43;100.00
58534;BME280;44109;52.398;7.024;2023-12-14T01:37:57;100807.56;;;6.20;100.00
58534;BME280;44109;52.398;7.024;2023-12-14T01:40:24;100826.22;;;6.47;100.00
58534;BME280;44109;52.398;7.024;2023-12-14T01:42:52;100837.66;;;6.04;100.00
58534;BME280;44109;52.398;7.024;2023-12-14T01:45:19;100844.50;;;5.35;100.00
58534;BME280;44109;52.398;7.024;2023-12-14T01:47:47;100842.25;;;5.58;100.00
58534;BME280;44109;52.398;7.024;2023-12-14T01:50:15;100853.00;;;5.21;100.00
58534;BME280;44109;52.398;7.024;2023-12-14T01:52:43;100845.00;;;5.07;100.00
58534;BME280;44109;52.398;7.024;2023-12-14T01:55:12;100851.94;;;5.34;100.00
58534;BME280;44109;52.398;7.024;2023-12-14T01:57:40;100870.84;;;6.28;100.00
58534;BME280;44109;52.398;7.024;2023-12-14T02:00:15;100865.81;;;6.43;100.00
58534;BME280;44109;52.398;7.024;2023-12-14T02:02:52;100847.94;;;5.53;100.00
58534;BME280;44109;52.398;7.024;2023-12-14T02:05:19;100865.09;;;6.33;100.00
58534;BME280;44109;52.398;7.024;2023-12-14T02:07:48;100868.31;;;6.69;100.00
58534;BME280;44109;52.398;7.024;2023-12-14T02:10:17;100870.75;;;6.82;100.00
58534;BME280;44109;52.398;7.024;2023-12-14T02:12:45;100852.13;;;6.79;100.00
58534;BME280;44109;52.398;7.024;2023-12-14T02:15:12;100877.72;;;6.80;100.00
58534;BME280;44109;52.398;7.024;2023-12-14T02:17:40;100876.28;;;6.16;100.00
58534;BME280;44109;52.398;7.024;2023-12-14T02:20:08;100886.44;;;6.24;100.00
58534;BME280;44109;52.398;7.024;2023-12-14T02:22:48;100882.22;;;6.06;100.00
58534;BME280;44109;52.398;7.024;2023-12-14T02:25:16;100880.72;;;6.08;100.00
58534;BME280;44109;52.398;7.024;2023-12-14T02:27:44;100831.91;;;6.18;100.00
58534;BME280;44109;52.398;7.024;2023-12-14T02:30:12;100889.25;;;6.16;100.00
58534;BME280;44109;52.398;7.024;2023-12-14T02:32:40;100894.56;;;6.21;100.00
58534;BME280;44109;52.398;7.024;2023-12-14T02:35:08;100881.84;;;6.28;100.00
58534;BME280;44109;52.398;7.024;2023-12-14T02:37:37;100913.34;;;6.40;100.00
58534;BME280;44109;52.398;7.024;2023-12-14T02:40:07;100911.78;;;6.51;100.00
58534;BME280;44109;52.398;7.024;2023-12-14T02:42:35;100913.31;;;6.06;100.00
58534;BME280;44109;52.398;7.024;2023-12-14T02:45:04;100891.72;;;6.29;100.00
58534;BME280;44109;52.398;7.024;2023-12-14T02:47:32;100913.97;;;6.24;100.00
58534;BME280;44109;52.398;7.024;2023-12-14T02:50:00;100900.72;;;5.55;100.00
58534;BME280;44109;52.398;7.024;2023-12-14T02:52:28;100931.09;;;5.58;100.00
58534;BME280;44109;52.398;7.024;2023-12-14T02:54:57;100935.44;;;5.68;100.00
58534;BME280;44109;52.398;7.024;2023-12-14T02:57:25;100938.19;;;5.89;100.00
58534;BME280;44109;52.398;7.024;2023-12-14T02:59:53;100934.53;;;6.06;100.00
58534;BME280;44109;52.398;7.024;2023-12-14T03:02:20;100930.94;;;6.26;100.00
58534;BME280;44109;52.398;7.024;2023-12-14T03:04:48;100936.63;;;5.79;100.00
58534;BME280;44109;52.398;7.024;2023-12-14T03:07:16;100938.31;;;6.22;100.00
58534;BME280;44109;52.398;7.024;2023-12-14T03:09:45;100943.47;;;6.57;100.00
58534;BME280;44109;52.398;7.024;2023-12-14T03:12:14;100939.19;;;6.14;100.00
58534;BME280;44109;52.398;7.024;2023-12-14T03:14:41;100941.13;;;5.93;100.00
58534;BME280;44109;52.398;7.024;2023-12-14T03:17:09;100959.88;;;6.53;100.00
58534;BME280;44109;52.398;7.024;2023-12-14T03:19:39;100952.13;;;5.93;100.00
58534;BME280;44109;52.398;7.024;2023-12-14T03:22:07;100958.84;;;6.04;100.00
58534;BME280;44109;52.398;7.024;2023-12-14T03:24:35;100965.16;;;6.46;100.00
58534;BME280;44109;52.398;7.024;2023-12-14T03:27:03;100959.84;;;6.20;100.00
58534;BME280;44109;52.398;7.024;2023-12-14T03:29:33;100970.53;;;6.01;100.00
58534;BME280;44109;52.398;7.024;2023-12-14T03:32:00;100975.47;;;5.87;100.00
58534;BME280;44109;52.398;7.024;2023-12-14T03:34:28;100966.44;;;6.07;100.00
58534;BME280;44109;52.398;7.024;2023-12-14T03:36:56;100960.28;;;6.10;100.00
58534;BME280;44109;52.398;7.024;2023-12-14T03:39:23;100979.53;;;6.10;100.00
58534;BME280;44109;52.398;7.024;2023-12-14T03:41:51;100996.25;;;5.75;100.00
58534;BME280;44109;52.398;7.024;2023-12-14T03:44:18;100989.06;;;5.92;100.00
58534;BME280;44109;52.398;7.024;2023-12-14T03:46:47;100983.72;;;5.57;100.00
58534;BME280;44109;52.398;7.024;2023-12-14T03:49:15;100998.34;;;6.08;100.00
58534;BME280;44109;52.398;7.024;2023-12-14T03:51:43;100997.53;;;6.07;100.00
58534;BME280;44109;52.398;7.024;2023-12-14T03:54:10;100998.56;;;6.24;100.00
58534;BME280;44109;52.398;7.024;2023-12-14T03:56:38;100999.47;;;6.07;100.00
58534;BME280;44109;52.398;7.024;2023-12-14T03:59:05;101006.84;;;5.94;100.00
58534;BME280;44109;52.398;7.024;2023-12-14T04:01:33;101014.00;;;5.87;100.00
58534;BME280;44109;52.398;7.024;2023-12-14T04:04:04;101022.78;;;5.50;100.00
58534;BME280;44109;52.398;7.024;2023-12-14T04:06:31;101018.81;;;5.22;100.00
58534;BME280;44109;52.398;7.024;2023-12-14T04:08:59;101038.00;;;5.39;100.00
58534;BME280;44109;52.398;7.024;2023-12-14T04:11:26;101051.25;;;5.93;100.00
58534;BME280;44109;52.398;7.024;2023-12-14T04:13:55;101047.25;;;5.81;100.00
58534;BME280;44109;52.398;7.024;2023-12-14T04:16:22;101046.72;;;5.50;100.00
58534;BME280;44109;52.398;7.024;2023-12-14T04:18:50;101050.03;;;5.17;100.00
58534;BME280;44109;52.398;7.024;2023-12-14T04:21:19;101059.81;;;5.91;100.00
58534;BME280;44109;52.398;7.024;2023-12-14T04:23:46;101063.94;;;6.35;100.00
58534;BME280;44109;52.398;7.024;2023-12-14T04:26:14;101065.25;;;6.59;100.00
58534;BME280;44109;52.398;7.024;2023-12-14T04:28:41;101061.88;;;6.74;100.00
58534;BME280;44109;52.398;7.024;2023-12-14T04:31:10;101068.16;;;6.96;100.00
58534;BME280;44109;52.398;7.024;2023-12-14T04:33:38;101071.16;;;6.70;100.00
58534;BME280;44109;52.398;7.024;2023-12-14T04:36:06;101070.63;;;6.26;100.00
58534;BME280;44109;52.398;7.024;2023-12-14T04:38:35;101077.25;;;6.04;100.00
58534;BME280;44109;52.398;7.024;2023-12-14T04:41:03;101078.66;;;5.33;100.00
58534;BME280;44109;52.398;7.024;2023-12-14T04:43:31;101074.81;;;5.73;100.00
58534;BME280;44109;52.398;7.024;2023-12-14T04:45:58;101080.50;;;6.06;100.00
58534;BME280;44109;52.398;7.024;2023-12-14T04:48:26;101076.19;;;5.88;100.00
58534;BME280;44109;52.398;7.024;2023-12-14T04:50:53;101086.25;;;5.37;100.00
58534;BME280;44109;52.398;7.024;2023-12-14T04:53:21;101092.97;;;6.33;100.00
58534;BME280;44109;52.398;7.024;2023-12-14T04:55:50;101097.06;;;6.27;100.00
58534;BME280;44109;52.398;7.024;2023-12-14T04:58:17;101093.38;;;6.23;100.00
58534;BME280;44109;52.398;7.024;2023-12-14T05:00:45;101096.22;;;6.56;100.00
58534;BME280;44109;52.398;7.024;2023-12-14T05:03:12;101096.97;;;6.65;100.00
58534;BME280;44109;52.398;7.024;2023-12-14T05:05:40;101102.03;;;6.04;100.00
58534;BME280;44109;52.398;7.024;2023-12-14T05:08:07;101094.66;;;5.87;100.00
58534;BME280;44109;52.398;7.024;2023-12-14T05:10:35;101097.78;;;6.15;100.00
58534;BME280;44109;52.398;7.024;2023-12-14T05:13:04;101093.25;;;5.72;100.00
58534;BME280;44109;52.398;7.024;2023-12-14T05:15:33;101083.56;;;5.66;100.00
58534;BME280;44109;52.398;7.024;2023-12-14T05:18:01;101117.44;;;6.34;100.00
58534;BME280;44109;52.398;7.024;2023-12-14T05:20:28;101090.94;;;6.21;100.00
58534;BME280;44109;52.398;7.024;2023-12-14T05:22:56;101117.13;;;6.57;100.00
58534;BME280;44109;52.398;7.024;2023-12-14T05:25:23;101118.28;;;6.56;100.00
58534;BME280;44109;52.398;7.024;2023-12-14T05:27:51;101123.31;;;6.24;100.00
58534;BME280;44109;52.398;7.024;2023-12-14T05:30:19;101122.75;;;6.10;100.00
58534;BME280;44109;52.398;7.024;2023-12-14T05:32:47;101134.03;;;5.79;100.00
58534;BME280;44109;52.398;7.024;2023-12-14T05:35:15;101120.53;;;5.95;100.00
58534;BME280;44109;52.398;7.024;2023-12-14T05:37:42;101133.69;;;5.80;100.00
58534;BME280;44109;52.398;7.024;2023-12-14T05:40:10;101114.13;;;5.82;100.00
58534;BME280;44109;52.398;7.024;2023-12-14T05:42:38;101156.47;;;6.07;100.00
58534;BME280;44109;52.398;7.024;2023-12-14T05:45:07;101155.84;;;6.31;100.00
58534;BME280;44109;52.398;7.024;2023-12-14T05:47:36;101175.94;;;5.84;100.00
58534;BME280;44109;52.398;7.024;2023-12-14T05:50:04;101173.94;;;5.29;100.00
58534;BME280;44109;52.398;7.024;2023-12-14T05:52:35;101180.19;;;5.73;100.00
58534;BME280;44109;52.398;7.024;2023-12-14T05:55:03;101182.50;;;5.54;100.00
58534;BME280;44109;52.398;7.024;2023-12-14T05:57:31;101179.06;;;5.66;100.00
58534;BME280;44109;52.398;7.024;2023-12-14T05:59:59;101203.22;;;5.51;100.00
58534;BME280;44109;52.398;7.024;2023-12-14T06:02:26;101202.84;;;5.79;100.00
58534;BME280;44109;52.398;7.024;2023-12-14T06:04:55;101217.94;;;5.64;100.00
58534;BME280;44109;52.398;7.024;2023-12-14T06:07:24;101217.16;;;5.55;100.00
58534;BME280;44109;52.398;7.024;2023-12-14T06:09:51;101219.09;;;5.46;100.00
58534;BME280;44109;52.398;7.024;2023-12-14T06:12:19;101229.44;;;5.40;100.00
58534;BME280;44109;52.398;7.024;2023-12-14T06:14:46;101207.41;;;5.49;100.00
58534;BME280;44109;52.398;7.024;2023-12-14T06:17:14;101231.56;;;5.34;100.00
58534;BME280;44109;52.398;7.024;2023-12-14T06:19:41;101239.00;;;5.60;100.00
58534;BME280;44109;52.398;7.024;2023-12-14T06:22:10;101245.94;;;5.40;100.00
58534;BME280;44109;52.398;7.024;2023-12-14T06:24:38;101250.81;;;5.52;100.00
58534;BME280;44109;52.398;7.024;2023-12-14T06:27:05;101266.81;;;5.58;100.00
58534;BME280;44109;52.398;7.024;2023-12-14T06:29:34;101266.78;;;4.98;100.00
58534;BME280;44109;52.398;7.024;2023-12-14T06:32:02;101274.28;;;5.41;100.00
58534;BME280;44109;52.398;7.024;2023-12-14T06:34:30;101276.22;;;5.75;100.00
58534;BME280;44109;52.398;7.024;2023-12-14T06:36:57;101287.53;;;5.39;100.00
58534;BME280;44109;52.398;7.024;2023-12-14T06:39:27;101290.13;;;5.35;100.00
58534;BME280;44109;52.398;7.024;2023-12-14T06:41:54;101296.31;;;5.41;100.00
58534;BME280;44109;52.398;7.024;2023-12-14T06:44:22;101300.28;;;5.00;100.00
58534;BME280;44109;52.398;7.024;2023-12-14T06:46:51;101312.00;;;5.31;100.00
58534;BME280;44109;52.398;7.024;2023-12-14T06:49:18;101309.88;;;5.80;100.00
58534;BME280;44109;52.398;7.024;2023-12-14T06:51:46;101308.75;;;5.47;100.00
58534;BME280;44109;52.398;7.024;2023-12-14T06:54:13;101312.41;;;5.07;100.00
58534;BME280;44109;52.398;7.024;2023-12-14T06:56:42;101303.31;;;4.90;100.00
58534;BME280;44109;52.398;7.024;2023-12-14T06:59:10;101309.84;;;5.20;100.00
58534;BME280;44109;52.398;7.024;2023-12-14T07:01:37;101307.38;;;4.92;100.00
58534;BME280;44109;52.398;7.024;2023-12-14T07:04:05;101296.25;;;5.15;100.00
58534;BME280;44109;52.398;7.024;2023-12-14T07:06:33;101325.75;;;5.66;100.00
58534;BME280;44109;52.398;7.024;2023-12-14T07:09:02;101320.38;;;6.13;100.00
58534;BME280;44109;52.398;7.024;2023-12-14T07:11:29;101321.06;;;5.75;100.00
58534;BME280;44109;52.398;7.024;2023-12-14T07:13:58;101325.41;;;5.85;100.00
58534;BME280;44109;52.398;7.024;2023-12-14T07:16:26;101328.78;;;6.25;100.00
58534;BME280;44109;52.398;7.024;2023-12-14T07:18:53;101337.25;;;6.20;100.00
58534;BME280;44109;52.398;7.024;2023-12-14T07:21:21;101342.44;;;5.78;100.00
58534;BME280;44109;52.398;7.024;2023-12-14T07:23:48;101342.91;;;6.32;100.00
58534;BME280;44109;52.398;7.024;2023-12-14T07:26:16;101344.94;;;6.44;100.00
58534;BME280;44109;52.398;7.024;2023-12-14T07:28:43;101346.34;;;5.77;100.00
58534;BME280;44109;52.398;7.024;2023-12-14T07:31:12;101346.47;;;5.90;100.00
58534;BME280;44109;52.398;7.024;2023-12-14T07:33:40;101354.09;;;5.75;100.00
58534;BME280;44109;52.398;7.024;2023-12-14T07:36:08;101366.19;;;6.44;100.00
58534;BME280;44109;52.398;7.024;2023-12-14T07:38:36;101356.44;;;6.55;100.00
58534;BME280;44109;52.398;7.024;2023-12-14T07:41:03;101354.81;;;6.54;100.00
58534;BME280;44109;52.398;7.024;2023-12-14T07:43:31;101361.78;;;6.60;100.00
58534;BME280;44109;52.398;7.024;2023-12-14T07:45:59;101367.34;;;6.43;100.00
58534;BME280;44109;52.398;7.024;2023-12-14T07:48:27;101376.34;;;6.69;100.00
58534;BME280;44109;52.398;7.024;2023-12-14T07:50:55;101380.28;;;6.59;100.00
58534;BME280;44109;52.398;7.024;2023-12-14T07:53:23;101387.81;;;6.80;100.00
58534;BME280;44109;52.398;7.024;2023-12-14T07:55:50;101389.56;;;6.38;100.00
58534;BME280;44109;52.398;7.024;2023-12-14T07:58:18;101396.59;;;6.73;100.00
58534;BME280;44109;52.398;7.024;2023-12-14T08:00:46;101408.28;;;6.70;100.00
58534;BME280;44109;52.398;7.024;2023-12-14T08:03:13;101408.41;;;6.82;100.00
58534;BME280;44109;52.398;7.024;2023-12-14T08:05:42;101413.09;;;6.91;100.00
58534;BME280;44109;52.398;7.024;2023-12-14T08:08:10;101409.06;;;6.79;100.00
58534;BME280;44109;52.398;7.024;2023-12-14T08:10:37;101425.66;;;6.62;100.00
58534;BME280;44109;52.398;7.024;2023-12-14T08:13:05;101428.31;;;6.06;100.00
58534;BME280;44109;52.398;7.024;2023-12-14T08:15:32;101443.06;;;6.45;100.00
58534;BME280;44109;52.398;7.024;2023-12-14T08:18:00;101443.06;;;6.45;100.00
58534;BME280;44109;52.398;7.024;2023-12-14T08:20:27;101453.91;;;6.24;100.00
58534;BME280;44109;52.398;7.024;2023-12-14T08:22:56;101460.06;;;6.39;100.00
58534;BME280;44109;52.398;7.024;2023-12-14T08:25:24;101460.69;;;6.35;100.00
58534;BME280;44109;52.398;7.024;2023-12-14T08:27:52;101468.66;;;6.28;100.00
58534;BME280;44109;52.398;7.024;2023-12-14T08:30:20;101473.69;;;6.18;100.00
58534;BME280;44109;52.398;7.024;2023-12-14T08:32:49;101449.38;;;6.28;100.00
58534;BME280;44109;52.398;7.024;2023-12-14T08:35:17;101466.53;;;6.60;100.00
58534;BME280;44109;52.398;7.024;2023-12-14T08:37:44;101424.72;;;5.89;100.00
58534;BME280;44109;52.398;7.024;2023-12-14T08:40:13;101478.53;;;6.29;100.00
58534;BME280;44109;52.398;7.024;2023-12-14T08:42:41;101493.13;;;6.65;100.00
58534;BME280;44109;52.398;7.024;2023-12-14T08:45:09;101494.09;;;6.60;100.00
58534;BME280;44109;52.398;7.024;2023-12-14T08:47:38;101493.75;;;6.53;100.00
58534;BME280;44109;52.398;7.024;2023-12-14T08:50:07;101501.56;;;6.68;100.00
58534;BME280;44109;52.398;7.024;2023-12-14T08:52:34;101511.88;;;6.89;100.00
58534;BME280;44109;52.398;7.024;2023-12-14T08:55:03;101505.59;;;6.53;100.00
58534;BME280;44109;52.398;7.024;2023-12-14T08:57:32;101514.03;;;6.66;100.00
58534;BME280;44109;52.398;7.024;2023-12-14T09:00:00;101514.19;;;6.34;100.00
58534;BME280;44109;52.398;7.024;2023-12-14T09:02:30;101515.81;;;6.53;100.00
58534;BME280;44109;52.398;7.024;2023-12-14T09:04:57;101520.19;;;6.54;100.00
58534;BME280;44109;52.398;7.024;2023-12-14T09:07:25;101512.25;;;6.26;100.00
58534;BME280;44109;52.398;7.024;2023-12-14T09:09:52;101530.34;;;5.93;100.00
58534;BME280;44109;52.398;7.024;2023-12-14T09:12:20;101526.88;;;5.78;100.00
58534;BME280;44109;52.398;7.024;2023-12-14T09:14:49;101530.72;;;6.17;100.00
58534;BME280;44109;52.398;7.024;2023-12-14T09:17:16;101528.94;;;6.30;100.00
58534;BME280;44109;52.398;7.024;2023-12-14T09:19:44;101531.38;;;6.49;100.00
58534;BME280;44109;52.398;7.024;2023-12-14T09:22:11;101529.75;;;6.48;100.00
58534;BME280;44109;52.398;7.024;2023-12-14T09:24:39;101530.41;;;6.45;100.00
58534;BME280;44109;52.398;7.024;2023-12-14T09:27:06;101540.28;;;6.28;100.00
58534;BME280;44109;52.398;7.024;2023-12-14T09:29:34;101553.41;;;6.14;100.00
58534;BME280;44109;52.398;7.024;2023-12-14T09:32:04;101552.91;;;6.12;100.00
58534;BME280;44109;52.398;7.024;2023-12-14T09:34:32;101555.72;;;6.47;100.00
58534;BME280;44109;52.398;7.024;2023-12-14T09:36:59;101554.09;;;6.46;100.00
58534;BME280;44109;52.398;7.024;2023-12-14T09:39:27;101563.16;;;6.38;100.00
58534;BME280;44109;52.398;7.024;2023-12-14T09:42:01;101550.06;;;5.86;100.00
58534;BME280;44109;52.398;7.024;2023-12-14T09:44:31;101552.06;;;5.94;100.00
58534;BME280;44109;52.398;7.024;2023-12-14T09:47:00;101570.63;;;6.46;100.00
58534;BME280;44109;52.398;7.024;2023-12-14T09:49:30;101573.19;;;6.33;100.00
58534;BME280;44109;52.398;7.024;2023-12-14T09:51:58;101574.38;;;6.50;100.00
58534;BME280;44109;52.398;7.024;2023-12-14T09:54:27;101575.16;;;6.76;100.00
58534;BME280;44109;52.398;7.024;2023-12-14T09:56:54;101570.13;;;6.87;100.00
58534;BME280;44109;52.398;7.024;2023-12-14T09:59:22;101570.13;;;6.96;100.00
58534;BME280;44109;52.398;7.024;2023-12-14T10:01:50;101563.31;;;6.93;100.00
58534;BME280;44109;52.398;7.024;2023-12-14T10:04:18;101568.03;;;6.93;100.00
58534;BME280;44109;52.398;7.024;2023-12-14T10:06:49;101580.53;;;6.64;100.00
58534;BME280;44109;52.398;7.024;2023-12-14T10:09:22;101592.44;;;6.16;100.00
58534;BME280;44109;52.398;7.024;2023-12-14T10:12:02;101587.69;;;5.99;100.00
58534;BME280;44109;52.398;7.024;2023-12-14T10:14:31;101601.19;;;6.09;100.00
58534;BME280;44109;52.398;7.024;2023-12-14T10:17:13;101609.34;;;5.83;100.00
58534;BME280;44109;52.398;7.024;2023-12-14T10:19:44;101606.88;;;5.42;100.00
58534;BME280;44109;52.398;7.024;2023-12-14T10:22:14;101625.59;;;5.94;100.00
58534;BME280;44109;52.398;7.024;2023-12-14T10:24:43;101630.28;;;5.62;100.00
58534;BME280;44109;52.398;7.024;2023-12-14T10:27:12;101633.53;;;5.64;100.00
58534;BME280;44109;52.398;7.024;2023-12-14T10:29:42;101616.38;;;5.36;100.00
58534;BME280;44109;52.398;7.024;2023-12-14T10:32:10;101632.16;;;5.53;100.00
58534;BME280;44109;52.398;7.024;2023-12-14T10:34:38;101632.34;;;5.88;100.00
58534;BME280;44109;52.398;7.024;2023-12-14T10:37:07;101604.50;;;5.58;100.00
58534;BME280;44109;52.398;7.024;2023-12-14T10:39:37;101646.63;;;6.29;100.00
58534;BME280;44109;52.398;7.024;2023-12-14T10:42:10;101587.69;;;5.59;100.00
58534;BME280;44109;52.398;7.024;2023-12-14T10:44:41;101647.03;;;5.74;100.00
58534;BME280;44109;52.398;7.024;2023-12-14T10:47:08;101653.38;;;5.83;100.00
58534;BME280;44109;52.398;7.024;2023-12-14T10:49:36;101655.13;;;6.02;100.00
58534;BME280;44109;52.398;7.024;2023-12-14T10:52:05;101640.94;;;6.34;100.00
58534;BME280;44109;52.398;7.024;2023-12-14T10:54:36;101629.66;;;6.79;100.00
58534;BME280;44109;52.398;7.024;2023-12-14T10:57:05;101636.63;;;7.11;100.00
58534;BME280;44109;52.398;7.024;2023-12-14T10:59:34;101639.22;;;6.99;100.00
58534;BME280;44109;52.398;7.024;2023-12-14T11:02:07;101649.63;;;6.94;100.00
58534;BME280;44109;52.398;7.024;2023-12-14T11:04:54;101652.38;;;6.59;100.00
58534;BME280;44109;52.398;7.024;2023-12-14T11:07:43;101664.19;;;6.59;100.00
58534;BME280;44109;52.398;7.024;2023-12-14T11:10:20;101666.75;;;5.99;100.00
58534;BME280;44109;52.398;7.024;2023-12-14T11:12:51;101683.94;;;5.96;100.00
58534;BME280;44109;52.398;7.024;2023-12-14T11:15:23;101680.44;;;6.21;100.00
58534;BME280;44109;52.398;7.024;2023-12-14T11:18:25;101682.66;;;6.02;100.00
58534;BME280;44109;52.398;7.024;2023-12-14T11:20:55;101672.69;;;5.61;100.00
58534;BME280;44109;52.398;7.024;2023-12-14T11:23:36;101700.66;;;6.08;100.00
58534;BME280;44109;52.398;7.024;2023-12-14T11:26:08;101687.69;;;6.08;100.00
58534;BME280;44109;52.398;7.024;2023-12-14T11:28:38;101691.56;;;5.76;100.00
58534;BME280;44109;52.398;7.024;2023-12-14T11:31:09;101685.88;;;5.73;100.00
58534;BME280;44109;52.398;7.024;2023-12-14T11:33:38;101693.03;;;6.05;100.00
58534;BME280;44109;52.398;7.024;2023-12-14T11:36:06;101700.06;;;5.89;100.00
58534;BME280;44109;52.398;7.024;2023-12-14T11:38:34;101696.59;;;6.05;100.00
58534;BME280;44109;52.398;7.024;2023-12-14T11:41:03;101708.69;;;6.35;100.00
58534;BME280;44109;52.398;7.024;2023-12-14T11:43:39;101705.97;;;6.44;100.00
58534;BME280;44109;52.398;7.024;2023-12-14T11:46:08;101683.78;;;6.41;100.00
58534;BME280;44109;52.398;7.024;2023-12-14T11:48:36;101683.13;;;6.44;100.00
58534;BME280;44109;52.398;7.024;2023-12-14T11:51:04;101695.19;;;6.74;100.00
58534;BME280;44109;52.398;7.024;2023-12-14T11:53:32;101688.91;;;6.25;100.00
58534;BME280;44109;52.398;7.024;2023-12-14T11:56:04;101694.84;;;6.09;100.00
58534;BME280;44109;52.398;7.024;2023-12-14T11:58:33;101694.09;;;6.26;100.00
58534;BME280;44109;52.398;7.024;2023-12-14T12:01:12;101699.75;;;6.21;100.00
58534;BME280;44109;52.398;7.024;2023-12-14T12:03:41;101692.00;;;5.70;100.00
58534;BME280;44109;52.398;7.024;2023-12-14T12:06:20;101711.41;;;5.65;100.00
58534;BME280;44109;52.398;7.024;2023-12-14T12:08:48;101718.34;;;5.62;100.00
58534;BME280;44109;52.398;7.024;2023-12-14T12:11:17;101716.84;;;6.01;100.00
58534;BME280;44109;52.398;7.024;2023-12-14T12:13:50;101719.28;;;6.02;100.00
58534;BME280;44109;52.398;7.024;2023-12-14T12:16:19;101729.00;;;5.77;100.00
58534;BME280;44109;52.398;7.024;2023-12-14T12:18:47;101729.44;;;5.93;100.00
58534;BME280;44109;52.398;7.024;2023-12-14T12:21:16;101723.50;;;5.77;100.00
58534;BME280;44109;52.398;7.024;2023-12-14T12:23:44;101698.94;;;5.36;100.00
58534;BME280;44109;52.398;7.024;2023-12-14T12:26:11;101715.72;;;5.57;100.00
58534;BME280;44109;52.398;7.024;2023-12-14T12:28:39;101719.94;;;5.77;100.00
58534;BME280;44109;52.398;7.024;2023-12-14T12:31:06;101725.25;;;5.73;100.00
58534;BME280;44109;52.398;7.024;2023-12-14T12:33:35;101723.97;;;5.12;100.00
58534;BME280;44109;52.398;7.024;2023-12-14T12:36:05;101733.00;;;5.49;100.00
58534;BME280;44109;52.398;7.024;2023-12-14T12:38:33;101724.38;;;5.42;100.00
58534;BME280;44109;52.398;7.024;2023-12-14T12:41:01;101737.00;;;5.43;100.00
58534;BME280;44109;52.398;7.024;2023-12-14T12:43:28;101741.63;;;5.33;100.00
58534;BME280;44109;52.398;7.024;2023-12-14T12:45:56;101740.38;;;5.62;100.00
58534;BME280;44109;52.398;7.024;2023-12-14T12:48:24;101744.88;;;5.58;100.00
58534;BME280;44109;52.398;7.024;2023-12-14T12:50:54;101747.50;;;5.18;100.00
58534;BME280;44109;52.398;7.024;2023-12-14T12:53:22;101758.94;;;5.34;100.00
58534;BME280;44109;52.398;7.024;2023-12-14T12:55:49;101750.72;;;5.20;100.00
58534;BME280;44109;52.398;7.024;2023-12-14T12:58:17;101766.94;;;5.44;100.00